createdAt,value
2023-04-12T00:00:23.036Z,71.70
2023-04-12T00:01:23.011Z,72.51
2023-04-12T00:02:23.209Z,70.58
2023-04-12T00:03:23.103Z,70.25
2023-04-12T00:04:23.047Z,71.22
2023-04-12T00:05:23.042Z,72.35
2023-04-12T00:06:22.926Z,70.90
2023-04-12T00:07:22.936Z,70.25
2023-04-12T00:08:22.889Z,69.77
2023-04-12T00:09:22.866Z,72.35
2023-04-12T00:10:22.857Z,71.87
2023-04-12T00:11:22.835Z,72.35
2023-04-12T00:12:22.852Z,69.93
2023-04-12T00:13:22.798Z,69.77
2023-04-12T00:14:22.782Z,73.80
2023-04-12T00:15:22.769Z,68.32
2023-04-12T00:16:22.820Z,71.54
2023-04-12T00:17:22.777Z,71.38
2023-04-12T00:18:22.786Z,71.87
2023-04-12T00:19:22.700Z,73.15
2023-04-12T00:20:22.689Z,67.35
2023-04-12T00:21:22.681Z,72.83
2023-04-12T00:22:22.703Z,71.87
2023-04-12T00:23:22.720Z,69.13
2023-04-12T00:24:22.609Z,69.93
2023-04-12T00:25:22.609Z,72.19
2023-04-12T00:26:22.578Z,72.19
2023-04-12T00:27:22.603Z,70.90
2023-04-12T00:28:22.588Z,70.42
2023-04-12T00:29:22.531Z,71.38
2023-04-12T00:30:22.504Z,70.58
2023-04-12T00:31:22.542Z,71.70
2023-04-12T00:32:22.535Z,69.29
2023-04-12T00:33:22.505Z,70.74
2023-04-12T00:34:22.592Z,71.22
2023-04-12T00:35:22.417Z,69.77
2023-04-12T00:36:22.405Z,71.70
2023-04-12T00:37:22.431Z,71.87
2023-04-12T00:38:22.375Z,70.42
2023-04-12T00:39:23.358Z,73.80
2023-04-12T00:40:22.355Z,72.03
2023-04-12T00:41:22.312Z,73.64
2023-04-12T00:42:22.330Z,72.19
2023-04-12T00:43:22.281Z,74.44
2023-04-12T00:44:22.282Z,73.48
2023-04-12T00:45:22.249Z,72.03
2023-04-12T00:46:22.296Z,73.48
2023-04-12T00:47:22.270Z,69.61
2023-04-12T00:48:22.206Z,71.54
2023-04-12T00:49:22.179Z,71.38
2023-04-12T00:50:22.177Z,73.15
2023-04-12T00:51:22.159Z,70.90
2023-04-12T00:52:22.177Z,71.38
2023-04-12T00:53:22.125Z,70.58
2023-04-12T00:54:22.120Z,72.83
2023-04-12T00:55:22.120Z,73.48
2023-04-12T00:56:22.058Z,72.35
2023-04-12T00:57:22.069Z,71.54
2023-04-12T00:58:22.026Z,73.64
2023-04-12T00:59:22.047Z,73.15
2023-04-12T01:00:21.990Z,70.58
2023-04-12T01:01:22.033Z,72.67
2023-04-12T01:02:22.100Z,72.19
2023-04-12T01:03:22.125Z,72.83
2023-04-12T01:04:21.922Z,71.70
2023-04-12T01:05:22.265Z,72.99
2023-04-12T01:06:21.886Z,73.15
2023-04-12T01:07:21.894Z,73.48
2023-04-12T01:08:21.849Z,72.35
2023-04-12T01:09:21.841Z,72.83
2023-04-12T01:10:21.826Z,71.22
2023-04-12T01:11:21.803Z,73.15
2023-04-12T01:12:21.823Z,73.15
2023-04-12T01:13:21.780Z,73.15
2023-04-12T01:14:21.764Z,71.06
2023-04-12T01:15:21.733Z,71.87
2023-04-12T01:16:21.765Z,73.96
2023-04-12T01:17:21.786Z,73.15
2023-04-12T01:18:21.839Z,72.35
2023-04-12T01:19:21.664Z,71.38
2023-04-12T01:20:21.682Z,74.12
2023-04-12T01:21:21.629Z,70.42
2023-04-12T01:22:21.667Z,71.22
2023-04-12T01:23:21.586Z,72.51
2023-04-12T01:24:21.576Z,71.06
2023-04-12T01:25:21.574Z,70.09
2023-04-12T01:26:21.661Z,73.15
2023-04-12T01:27:21.567Z,73.32
2023-04-12T01:28:21.505Z,73.32
2023-04-12T01:29:21.514Z,71.06
2023-04-12T01:30:21.511Z,71.38
2023-04-12T01:31:22.457Z,71.87
2023-04-12T01:32:21.501Z,72.19
2023-04-12T01:33:21.435Z,72.83
2023-04-12T01:34:21.405Z,72.99
2023-04-12T01:35:21.404Z,73.64
2023-04-12T01:36:21.391Z,73.80
2023-04-12T01:37:21.381Z,75.57
2023-04-12T01:38:21.343Z,71.38
2023-04-12T01:39:21.327Z,73.64
2023-04-12T01:40:21.310Z,72.51
2023-04-12T01:41:21.287Z,74.60
2023-04-12T01:42:21.289Z,72.19
2023-04-12T01:43:21.250Z,72.99
2023-04-12T01:44:21.232Z,72.35
2023-04-12T01:45:21.308Z,71.87
2023-04-12T01:46:21.204Z,72.51
2023-04-12T01:47:21.223Z,73.64
2023-04-12T01:48:21.199Z,74.12
2023-04-12T01:49:21.145Z,70.42
2023-04-12T01:50:21.143Z,71.06
2023-04-12T01:51:21.107Z,70.74
2023-04-12T01:52:21.152Z,72.99
2023-04-12T01:53:21.078Z,73.32
2023-04-12T01:54:21.072Z,74.60
2023-04-12T01:55:21.039Z,76.70
2023-04-12T01:56:21.047Z,73.64
2023-04-12T01:57:21.040Z,72.03
2023-04-12T01:58:20.996Z,72.67
2023-04-12T01:59:20.991Z,72.03
2023-04-12T02:00:20.975Z,71.38
2023-04-12T02:01:21.029Z,73.15
2023-04-12T02:02:21.082Z,73.15
2023-04-12T02:03:21.061Z,73.64
2023-04-12T02:04:20.897Z,70.74
2023-04-12T02:05:20.891Z,73.80
2023-04-12T02:06:20.894Z,72.35
2023-04-12T02:07:20.879Z,72.03
2023-04-12T02:08:20.901Z,72.51
2023-04-12T02:09:20.815Z,71.87
2023-04-12T02:10:20.793Z,73.32
2023-04-12T02:11:20.779Z,72.03
2023-04-12T02:12:20.824Z,74.12
2023-04-12T02:13:20.788Z,72.51
2023-04-12T02:14:20.820Z,72.51
2023-04-12T02:15:20.802Z,72.67
2023-04-12T02:16:20.842Z,71.87
2023-04-12T02:17:20.756Z,72.51
2023-04-12T02:18:20.802Z,71.38
2023-04-12T02:19:20.633Z,74.12
2023-04-12T02:20:20.632Z,70.74
2023-04-12T02:21:20.606Z,71.22
2023-04-12T02:22:20.634Z,70.09
2023-04-12T02:23:20.567Z,72.03
2023-04-12T02:24:20.563Z,72.67
2023-04-12T02:25:20.545Z,72.99
2023-04-12T02:26:20.520Z,73.64
2023-04-12T02:27:20.532Z,71.70
2023-04-12T02:28:20.485Z,71.38
2023-04-12T02:29:20.469Z,73.96
2023-04-12T02:30:20.447Z,70.58
2023-04-12T02:31:20.531Z,71.87
2023-04-12T02:32:20.462Z,72.83
2023-04-12T02:33:20.404Z,72.19
2023-04-12T02:34:20.379Z,73.96
2023-04-12T02:35:20.451Z,72.67
2023-04-12T02:36:20.343Z,74.12
2023-04-12T02:37:20.364Z,72.35
2023-04-12T02:38:20.310Z,72.19
2023-04-12T02:39:20.304Z,70.74
2023-04-12T02:40:20.276Z,72.51
2023-04-12T02:41:20.267Z,73.48
2023-04-12T02:42:20.272Z,72.99
2023-04-12T02:43:21.222Z,72.99
2023-04-12T02:44:20.209Z,73.32
2023-04-12T02:45:20.208Z,72.51
2023-04-12T02:46:20.210Z,72.51
2023-04-12T02:47:20.215Z,73.32
2023-04-12T02:48:20.150Z,71.87
2023-04-12T02:49:20.174Z,70.74
2023-04-12T02:50:20.119Z,72.83
2023-04-12T02:51:20.092Z,71.38
2023-04-12T02:52:20.106Z,71.87
2023-04-12T02:53:20.053Z,72.83
2023-04-12T02:54:20.049Z,70.74
2023-04-12T02:55:20.022Z,72.83
2023-04-12T02:56:20.011Z,71.70
2023-04-12T02:57:20.020Z,69.61
2023-04-12T02:58:19.976Z,70.25
2023-04-12T02:59:19.950Z,74.28
2023-04-12T03:00:19.936Z,72.51
2023-04-12T03:01:19.984Z,72.35
2023-04-12T03:02:20.008Z,70.90
2023-04-12T03:03:20.036Z,72.03
2023-04-12T03:04:21.162Z,73.48
2023-04-12T03:05:19.870Z,70.74
2023-04-12T03:06:19.841Z,71.70
2023-04-12T03:07:19.846Z,71.38
2023-04-12T03:08:19.792Z,72.51
2023-04-12T03:09:19.783Z,70.90
2023-04-12T03:10:19.874Z,71.54
2023-04-12T03:11:19.751Z,72.51
2023-04-12T03:12:19.769Z,71.87
2023-04-12T03:13:19.715Z,73.96
2023-04-12T03:14:19.713Z,73.32
2023-04-12T03:15:19.679Z,70.74
2023-04-12T03:16:19.768Z,71.22
2023-04-12T03:17:19.678Z,69.61
2023-04-12T03:18:19.631Z,72.99
2023-04-12T03:19:19.622Z,71.70
2023-04-12T03:20:19.617Z,71.70
2023-04-12T03:21:19.576Z,71.06
2023-04-12T03:22:19.600Z,72.99
2023-04-12T03:23:19.548Z,73.32
2023-04-12T03:24:19.538Z,72.83
2023-04-12T03:25:19.512Z,71.70
2023-04-12T03:26:19.496Z,74.28
2023-04-12T03:27:19.502Z,71.38
2023-04-12T03:28:19.456Z,71.54
2023-04-12T03:29:19.451Z,73.15
2023-04-12T03:30:19.424Z,71.38
2023-04-12T03:31:19.421Z,73.32
2023-04-12T03:32:19.422Z,71.22
2023-04-12T03:33:19.406Z,72.99
2023-04-12T03:34:19.364Z,73.15
2023-04-12T03:35:19.449Z,72.19
2023-04-12T03:36:19.344Z,70.90
2023-04-12T03:37:19.358Z,73.32
2023-04-12T03:38:19.290Z,73.64
2023-04-12T03:39:19.279Z,72.67
2023-04-12T03:40:19.254Z,71.22
2023-04-12T03:41:19.246Z,72.35
2023-04-12T03:42:32.431Z,73.32
2023-04-12T03:43:21.303Z,76.54
2023-04-12T03:44:19.186Z,73.64
2023-04-12T03:45:19.175Z,76.54
2023-04-12T03:46:19.176Z,72.51
2023-04-12T03:47:19.180Z,73.15
2023-04-12T03:48:19.134Z,73.48
2023-04-12T03:49:19.105Z,73.15
2023-04-12T03:50:19.094Z,73.48
2023-04-12T03:51:19.061Z,71.54
2023-04-12T03:52:19.089Z,72.03
2023-04-12T03:53:19.043Z,72.51
2023-04-12T03:54:19.022Z,73.15
2023-04-12T03:55:19.000Z,73.32
2023-04-12T03:56:18.976Z,73.48
2023-04-12T03:57:18.991Z,74.44
2023-04-12T03:58:18.983Z,73.48
2023-04-12T03:59:18.930Z,74.28
2023-04-12T04:00:18.914Z,73.32
2023-04-12T04:01:18.932Z,73.64
2023-04-12T04:02:19.018Z,74.60
2023-04-12T04:03:18.972Z,73.96
2023-04-12T04:04:19.060Z,73.15
2023-04-12T04:05:18.909Z,74.44
2023-04-12T04:06:18.829Z,73.80
2023-04-12T04:07:18.839Z,74.12
2023-04-12T04:08:45.192Z,73.48
2023-04-12T04:09:18.767Z,73.32
2023-04-12T04:10:18.748Z,74.12
2023-04-12T04:11:18.751Z,75.57
2023-04-12T04:12:18.759Z,74.60
2023-04-12T04:13:18.713Z,74.60
2023-04-12T04:14:18.690Z,74.12
2023-04-12T04:15:19.691Z,75.41
2023-04-12T04:16:18.741Z,76.22
2023-04-12T04:17:18.698Z,77.67
2023-04-12T04:18:18.658Z,74.77
2023-04-12T04:19:18.603Z,75.25
2023-04-12T04:20:18.617Z,74.28
2023-04-12T04:21:18.571Z,76.54
2023-04-12T04:22:18.621Z,72.35
2023-04-12T04:23:18.555Z,74.60
2023-04-12T04:24:18.550Z,73.48
2023-04-12T04:25:18.525Z,71.38
2023-04-12T04:26:18.497Z,73.48
2023-04-12T04:27:18.518Z,74.44
2023-04-12T04:28:18.477Z,74.60
2023-04-12T04:29:18.456Z,75.73
2023-04-12T04:30:18.423Z,73.80
2023-04-12T04:31:18.413Z,75.89
2023-04-12T04:32:18.460Z,76.86
2023-04-12T04:33:18.361Z,74.12
2023-04-12T04:34:18.371Z,73.64
2023-04-12T04:35:18.341Z,74.12
2023-04-12T04:36:18.319Z,75.41
2023-04-12T04:37:18.333Z,74.28
2023-04-12T04:38:18.274Z,75.41
2023-04-12T04:39:18.254Z,74.77
2023-04-12T04:40:18.236Z,75.25
2023-04-12T04:41:18.221Z,74.28
2023-04-12T04:42:18.239Z,74.28
2023-04-12T04:43:18.181Z,74.60
2023-04-12T04:44:18.171Z,73.64
2023-04-12T04:45:18.170Z,74.60
2023-04-12T04:46:18.136Z,73.80
2023-04-12T04:47:18.148Z,74.60
2023-04-12T04:48:18.094Z,75.09
2023-04-12T04:49:18.096Z,74.77
2023-04-12T04:50:18.064Z,75.89
2023-04-12T04:51:18.061Z,74.60
2023-04-12T04:52:18.061Z,74.93
2023-04-12T04:53:18.020Z,73.32
2023-04-12T04:54:17.990Z,74.28
2023-04-12T04:55:18.017Z,76.22
2023-04-12T04:56:17.969Z,74.77
2023-04-12T04:57:17.994Z,74.77
2023-04-12T04:58:17.929Z,73.80
2023-04-12T04:59:17.912Z,73.64
2023-04-12T05:00:17.886Z,75.57
2023-04-12T05:01:17.913Z,75.09
2023-04-12T05:02:17.892Z,75.25
2023-04-12T05:03:17.929Z,75.73
2023-04-12T05:04:17.888Z,74.12
2023-04-12T05:05:17.810Z,74.60
2023-04-12T05:06:17.783Z,75.25
2023-04-12T05:07:17.793Z,74.60
2023-04-12T05:08:17.734Z,76.54
2023-04-12T05:09:17.731Z,77.67
2023-04-12T05:10:17.722Z,75.25
2023-04-12T05:11:17.702Z,74.12
2023-04-12T05:12:17.709Z,74.60
2023-04-12T05:13:17.664Z,74.44
2023-04-12T05:14:17.695Z,74.12
2023-04-12T05:15:17.623Z,73.64
2023-04-12T05:16:17.699Z,76.05
2023-04-12T05:17:17.622Z,74.60
2023-04-12T05:18:17.568Z,72.51
2023-04-12T05:19:17.546Z,74.44
2023-04-12T05:20:17.547Z,75.41
2023-04-12T05:21:17.542Z,75.73
2023-04-12T05:22:17.527Z,74.44
2023-04-12T05:23:17.527Z,75.57
2023-04-12T05:24:17.482Z,75.89
2023-04-12T05:25:17.511Z,74.12
2023-04-12T05:26:17.464Z,76.22
2023-04-12T05:27:17.467Z,74.93
2023-04-12T05:28:17.436Z,74.93
2023-04-12T05:29:17.537Z,74.93
2023-04-12T05:30:17.361Z,74.44
2023-04-12T05:31:17.434Z,76.05
2023-04-12T05:32:17.369Z,75.41
2023-04-12T05:33:17.318Z,74.12
2023-04-12T05:34:17.298Z,75.89
2023-04-12T05:35:17.355Z,76.70
2023-04-12T05:36:17.264Z,76.38
2023-04-12T05:37:17.294Z,75.73
2023-04-12T05:38:17.247Z,74.93
2023-04-12T05:39:18.819Z,72.99
2023-04-12T05:40:17.194Z,74.12
2023-04-12T05:41:17.180Z,74.28
2023-04-12T05:42:17.225Z,76.22
2023-04-12T05:43:17.144Z,74.12
2023-04-12T05:44:17.142Z,75.09
2023-04-12T05:45:17.155Z,75.57
2023-04-12T05:46:17.135Z,74.44
2023-04-12T05:47:17.171Z,74.28
2023-04-12T05:48:17.092Z,74.44
2023-04-12T05:49:17.077Z,73.80
2023-04-12T05:50:17.030Z,74.60
2023-04-12T05:51:19.506Z,73.15
2023-04-12T05:52:18.030Z,76.38
2023-04-12T05:53:16.967Z,74.77
2023-04-12T05:54:16.957Z,75.73
2023-04-12T05:55:16.942Z,73.64
2023-04-12T05:56:16.940Z,75.89
2023-04-12T05:57:16.998Z,74.77
2023-04-12T05:58:16.888Z,75.73
2023-04-12T05:59:16.885Z,75.41
2023-04-12T06:00:16.850Z,75.73
2023-04-12T06:01:16.855Z,73.32
2023-04-12T06:02:17.195Z,73.96
2023-04-12T06:03:16.916Z,75.89
2023-04-12T06:04:17.023Z,75.73
2023-04-12T06:05:16.860Z,73.48
2023-04-12T06:06:16.737Z,75.25
2023-04-12T06:07:16.761Z,73.48
2023-04-12T06:08:16.723Z,76.22
2023-04-12T06:09:16.709Z,76.70
2023-04-12T06:10:16.682Z,75.73
2023-04-12T06:11:16.675Z,75.57
2023-04-12T06:12:16.680Z,75.57
2023-04-12T06:13:16.623Z,76.05
2023-04-12T06:14:16.612Z,75.57
2023-04-12T06:15:17.601Z,77.18
2023-04-12T06:16:16.658Z,75.41
2023-04-12T06:17:16.602Z,75.57
2023-04-12T06:18:16.554Z,75.73
2023-04-12T06:19:16.527Z,75.09
2023-04-12T06:20:16.560Z,73.64
2023-04-12T06:21:16.496Z,74.44
2023-04-12T06:22:16.504Z,75.73
2023-04-12T06:23:16.470Z,75.41
2023-04-12T06:24:16.466Z,74.77
2023-04-12T06:25:16.440Z,74.12
2023-04-12T06:26:17.966Z,76.22
2023-04-12T06:27:16.446Z,76.22
2023-04-12T06:28:16.391Z,76.22
2023-04-12T06:29:16.378Z,76.22
2023-04-12T06:30:16.353Z,75.89
2023-04-12T06:31:16.396Z,75.57
2023-04-12T06:32:16.351Z,74.60
2023-04-12T06:33:16.303Z,73.96
2023-04-12T06:34:16.261Z,74.28
2023-04-12T06:35:16.280Z,75.89
2023-04-12T06:36:16.394Z,78.47
2023-04-12T06:37:16.241Z,75.41
2023-04-12T06:38:16.239Z,75.89
2023-04-12T06:39:16.215Z,74.77
2023-04-12T06:40:16.167Z,76.54
2023-04-12T06:41:16.148Z,76.22
2023-04-12T06:42:16.165Z,75.73
2023-04-12T06:43:16.107Z,75.09
2023-04-12T06:44:16.117Z,75.25
2023-04-12T06:45:16.124Z,73.96
2023-04-12T06:46:16.121Z,76.54
2023-04-12T06:47:16.151Z,73.96
2023-04-12T06:48:16.034Z,76.70
2023-04-12T06:49:16.005Z,76.05
2023-04-12T06:50:16.001Z,73.80
2023-04-12T06:51:15.964Z,75.89
2023-04-12T06:52:16.072Z,73.64
2023-04-12T06:53:15.940Z,73.96
2023-04-12T06:54:16.194Z,76.54
2023-04-12T06:55:15.904Z,76.05
2023-04-12T06:56:18.347Z,75.73
2023-04-12T06:57:16.900Z,75.09
2023-04-12T06:58:15.877Z,76.05
2023-04-12T06:59:15.834Z,76.22
2023-04-12T07:00:15.835Z,75.25
2023-04-12T07:01:15.841Z,74.28
2023-04-12T07:02:15.851Z,77.50
2023-04-12T07:03:15.872Z,77.50
2023-04-12T07:04:15.866Z,75.57
2023-04-12T07:05:15.754Z,74.60
2023-04-12T07:06:25.229Z,75.09
2023-04-12T07:07:17.761Z,74.12
2023-04-12T07:08:15.688Z,74.44
2023-04-12T07:09:15.671Z,75.57
2023-04-12T07:10:15.636Z,74.93
2023-04-12T07:11:21.597Z,74.60
2023-04-12T07:12:17.646Z,74.28
2023-04-12T07:13:15.629Z,75.09
2023-04-12T07:14:15.589Z,75.09
2023-04-12T07:15:15.622Z,73.32
2023-04-12T07:16:15.648Z,75.25
2023-04-12T07:17:15.582Z,75.41
2023-04-12T07:18:15.540Z,74.60
2023-04-12T07:19:15.566Z,73.80
2023-04-12T07:20:15.491Z,76.22
2023-04-12T07:21:15.536Z,75.25
2023-04-12T07:22:15.474Z,73.32
2023-04-12T07:23:15.561Z,73.64
2023-04-12T07:24:15.431Z,74.28
2023-04-12T07:25:15.403Z,76.86
2023-04-12T07:26:15.559Z,75.09
2023-04-12T07:27:15.393Z,75.25
2023-04-12T07:28:15.351Z,75.25
2023-04-12T07:29:15.330Z,74.60
2023-04-12T07:30:15.315Z,74.77
2023-04-12T07:31:15.310Z,73.48
2023-04-12T07:32:15.332Z,74.44
2023-04-12T07:33:19.569Z,75.41
2023-04-12T07:34:16.320Z,76.38
2023-04-12T07:35:15.257Z,73.15
2023-04-12T07:36:15.247Z,74.60
2023-04-12T07:37:15.230Z,73.64
2023-04-12T07:38:16.673Z,73.15
2023-04-12T07:39:16.171Z,73.96
2023-04-12T07:40:15.140Z,74.44
2023-04-12T07:41:15.152Z,75.09
2023-04-12T07:42:15.163Z,72.19
2023-04-12T07:43:15.144Z,75.25
2023-04-12T07:44:15.088Z,73.96
2023-04-12T07:45:15.071Z,74.93
2023-04-12T07:46:15.067Z,74.77
2023-04-12T07:47:15.081Z,73.48
2023-04-12T07:48:15.021Z,74.28
2023-04-12T07:49:15.003Z,74.28
2023-04-12T07:50:14.963Z,74.93
2023-04-12T07:51:14.958Z,76.70
2023-04-12T07:52:14.978Z,74.93
2023-04-12T07:53:14.960Z,72.03
2023-04-12T07:54:14.974Z,73.96
2023-04-12T07:55:14.923Z,75.73
2023-04-12T07:56:14.899Z,74.60
2023-04-12T07:57:14.853Z,74.77
2023-04-12T07:58:14.852Z,74.77
2023-04-12T07:59:14.869Z,73.96
2023-04-12T08:00:14.820Z,76.38
2023-04-12T08:01:14.822Z,75.73
2023-04-12T08:02:14.850Z,74.44
2023-04-12T08:03:14.879Z,73.80
2023-04-12T08:04:14.943Z,76.70
2023-04-12T08:05:14.740Z,74.60
2023-04-12T08:06:14.726Z,76.86
2023-04-12T08:07:14.752Z,76.22
2023-04-12T08:08:14.655Z,74.12
2023-04-12T08:09:14.633Z,74.44
2023-04-12T08:10:14.622Z,76.54
2023-04-12T08:11:14.606Z,75.25
2023-04-12T08:12:14.641Z,79.28
2023-04-12T08:13:14.601Z,76.86
2023-04-12T08:14:14.547Z,78.63
2023-04-12T08:15:14.555Z,74.60
2023-04-12T08:16:14.579Z,75.41
2023-04-12T08:17:14.557Z,76.22
2023-04-12T08:18:14.493Z,75.25
2023-04-12T08:19:14.474Z,76.70
2023-04-12T08:20:14.458Z,74.60
2023-04-12T08:21:14.453Z,75.73
2023-04-12T08:22:14.449Z,76.38
2023-04-12T08:23:14.398Z,76.54
2023-04-12T08:24:14.380Z,76.70
2023-04-12T08:25:14.377Z,75.41
2023-04-12T08:26:14.349Z,74.28
2023-04-12T08:27:14.427Z,74.60
2023-04-12T08:28:14.310Z,76.54
2023-04-12T08:29:14.321Z,76.05
2023-04-12T08:30:14.299Z,76.70
2023-04-12T08:31:14.271Z,82.02
2023-04-12T08:32:14.477Z,77.50
2023-04-12T08:33:14.227Z,75.73
2023-04-12T08:34:14.217Z,75.73
2023-04-12T08:35:14.182Z,74.93
2023-04-12T08:36:14.255Z,74.93
2023-04-12T08:37:14.185Z,74.60
2023-04-12T08:38:14.147Z,75.09
2023-04-12T08:39:14.137Z,75.25
2023-04-12T08:40:14.152Z,75.57
2023-04-12T08:41:14.800Z,75.73
2023-04-12T08:42:14.140Z,75.57
2023-04-12T08:43:14.148Z,74.93
2023-04-12T08:44:14.033Z,75.57
2023-04-12T08:45:14.050Z,74.60
2023-04-12T08:46:15.037Z,75.25
2023-04-12T08:47:14.008Z,74.77
2023-04-12T08:48:13.972Z,75.73
2023-04-12T08:49:13.975Z,74.93
2023-04-12T08:50:14.158Z,75.25
2023-04-12T08:51:13.956Z,76.38
2023-04-12T08:52:13.940Z,75.09
2023-04-12T08:53:13.896Z,74.44
2023-04-12T08:54:13.879Z,74.93
2023-04-12T08:55:13.861Z,75.73
2023-04-12T08:56:13.870Z,75.89
2023-04-12T08:57:13.859Z,76.38
2023-04-12T08:58:13.808Z,75.09
2023-04-12T08:59:13.846Z,76.54
2023-04-12T09:00:14.245Z,75.89
2023-04-12T09:01:13.745Z,74.77
2023-04-12T09:02:13.842Z,74.28
2023-04-12T09:03:13.961Z,74.77
2023-04-12T09:04:13.918Z,73.80
2023-04-12T09:05:13.702Z,76.70
2023-04-12T09:06:13.664Z,75.09
2023-04-12T09:07:13.699Z,76.70
2023-04-12T09:08:13.636Z,75.73
2023-04-12T09:09:13.610Z,74.93
2023-04-12T09:10:13.600Z,75.89
2023-04-12T09:11:13.577Z,76.70
2023-04-12T09:12:13.583Z,75.73
2023-04-12T09:13:13.554Z,74.44
2023-04-12T09:14:13.519Z,75.73
2023-04-12T09:15:13.762Z,76.70
2023-04-12T09:16:13.529Z,76.22
2023-04-12T09:17:13.503Z,74.60
2023-04-12T09:18:15.802Z,74.93
2023-04-12T09:19:13.444Z,74.93
2023-04-12T09:20:13.432Z,75.73
2023-04-12T09:21:13.416Z,73.48
2023-04-12T09:22:13.445Z,77.02
2023-04-12T09:23:13.363Z,75.41
2023-04-12T09:24:14.773Z,75.41
2023-04-12T09:25:14.344Z,75.73
2023-04-12T09:26:13.307Z,75.89
2023-04-12T09:27:13.347Z,76.70
2023-04-12T09:28:13.329Z,75.25
2023-04-12T09:29:13.263Z,74.44
2023-04-12T09:30:13.231Z,75.57
2023-04-12T09:31:13.386Z,74.93
2023-04-12T09:32:14.221Z,75.73
2023-04-12T09:33:13.247Z,74.93
2023-04-12T09:34:13.177Z,74.60
2023-04-12T09:35:13.179Z,73.64
2023-04-12T09:36:13.157Z,74.93
2023-04-12T09:37:13.203Z,76.22
2023-04-12T09:38:13.096Z,75.25
2023-04-12T09:39:13.131Z,75.41
2023-04-12T09:40:13.102Z,77.18
2023-04-12T09:41:13.071Z,77.67
2023-04-12T09:42:29.852Z,76.70
2023-04-12T09:43:15.013Z,75.89
2023-04-12T09:44:13.033Z,75.25
2023-04-12T09:45:12.991Z,74.12
2023-04-12T09:46:13.033Z,73.80
2023-04-12T09:47:13.014Z,75.25
2023-04-12T09:48:13.006Z,72.67
2023-04-12T09:49:12.943Z,76.22
2023-04-12T09:50:12.918Z,75.41
2023-04-12T09:51:12.910Z,77.99
2023-04-12T09:52:12.931Z,75.09
2023-04-12T09:53:12.885Z,73.64
2023-04-12T09:54:12.870Z,76.70
2023-04-12T09:55:12.844Z,75.09
2023-04-12T09:56:12.794Z,75.09
2023-04-12T09:57:12.895Z,76.05
2023-04-12T09:58:12.808Z,74.77
2023-04-12T09:59:12.762Z,75.25
2023-04-12T10:00:12.723Z,73.80
2023-04-12T10:01:13.131Z,72.83
2023-04-12T10:02:12.909Z,73.15
2023-04-12T10:03:12.929Z,75.73
2023-04-12T10:04:13.367Z,76.22
2023-04-12T10:05:12.741Z,74.77
2023-04-12T10:06:12.617Z,74.60
2023-04-12T10:07:14.864Z,76.86
2023-04-12T10:08:12.585Z,72.51
2023-04-12T10:09:12.603Z,74.77
2023-04-12T10:10:12.584Z,74.28
2023-04-12T10:11:12.585Z,75.89
2023-04-12T10:12:12.559Z,74.12
2023-04-12T10:13:12.515Z,75.25
2023-04-12T10:14:13.035Z,76.05
2023-04-12T10:15:44.423Z,73.80
2023-04-12T10:16:12.517Z,74.77
2023-04-12T10:17:12.538Z,77.02
2023-04-12T10:18:12.608Z,74.28
2023-04-12T10:19:12.481Z,74.28
2023-04-12T10:20:12.456Z,73.64
2023-04-12T10:21:12.394Z,75.73
2023-04-12T10:22:12.385Z,75.25
2023-04-12T10:23:12.350Z,75.73
2023-04-12T10:24:12.309Z,77.02
2023-04-12T10:25:12.310Z,75.25
2023-04-12T10:26:12.277Z,74.60
2023-04-12T10:27:12.300Z,74.60
2023-04-12T10:28:12.256Z,73.96
2023-04-12T10:29:12.240Z,74.28
2023-04-12T10:30:12.255Z,74.28
2023-04-12T10:31:12.260Z,77.34
2023-04-12T10:32:12.313Z,72.35
2023-04-12T10:33:12.238Z,74.12
2023-04-12T10:34:12.171Z,74.60
2023-04-12T10:35:12.172Z,74.60
2023-04-12T10:36:12.193Z,76.05
2023-04-12T10:37:12.142Z,75.09
2023-04-12T10:38:12.174Z,75.25
2023-04-12T10:39:12.061Z,74.28
2023-04-12T10:40:12.070Z,73.64
2023-04-12T10:41:12.029Z,74.60
2023-04-12T10:42:12.023Z,75.41
2023-04-12T10:43:12.070Z,75.09
2023-04-12T10:44:12.007Z,74.28
2023-04-12T10:45:12.000Z,75.09
2023-04-12T10:46:12.084Z,72.99
2023-04-12T10:47:11.971Z,75.89
2023-04-12T10:48:11.976Z,73.48
2023-04-12T10:49:11.889Z,73.96
2023-04-12T10:50:11.877Z,74.93
2023-04-12T10:51:12.949Z,75.41
2023-04-12T10:52:11.866Z,72.99
2023-04-12T10:53:11.855Z,75.09
2023-04-12T10:54:11.800Z,74.44
2023-04-12T10:55:11.803Z,73.15
2023-04-12T10:56:11.780Z,73.80
2023-04-12T10:57:11.797Z,75.09
2023-04-12T10:58:11.834Z,72.99
2023-04-12T10:59:11.735Z,73.80
2023-04-12T11:00:11.712Z,73.32
2023-04-12T11:01:11.940Z,73.48
2023-04-12T11:02:12.063Z,73.80
2023-04-12T11:03:12.494Z,72.99
2023-04-12T11:04:11.856Z,74.28
2023-04-12T11:05:11.882Z,75.25
2023-04-12T11:06:26.496Z,74.60
2023-04-12T11:07:13.571Z,73.80
2023-04-12T11:08:11.586Z,75.09
2023-04-12T11:09:11.575Z,75.09
2023-04-12T11:10:11.578Z,73.32
2023-04-12T11:11:11.617Z,74.28
2023-04-12T11:12:11.483Z,76.22
2023-04-12T11:13:11.528Z,72.99
2023-04-12T11:14:11.475Z,73.48
2023-04-12T11:15:11.500Z,72.83
2023-04-12T11:16:11.471Z,74.12
2023-04-12T11:17:11.534Z,73.32
2023-04-12T11:18:11.455Z,75.25
2023-04-12T11:19:11.370Z,75.09
2023-04-12T11:20:11.364Z,73.32
2023-04-12T11:21:11.377Z,75.25
2023-04-12T11:22:11.314Z,73.32
2023-04-12T11:23:11.689Z,73.96
2023-04-12T11:24:12.305Z,73.80
2023-04-12T11:25:11.276Z,74.12
2023-04-12T11:26:11.267Z,73.64
2023-04-12T11:27:11.230Z,73.64
2023-04-12T11:28:25.178Z,74.44
2023-04-12T11:29:13.209Z,74.77
2023-04-12T11:30:11.188Z,71.87
2023-04-12T11:31:11.234Z,73.15
2023-04-12T11:32:11.248Z,71.70
2023-04-12T11:33:11.204Z,73.15
2023-04-12T11:34:12.087Z,73.48
2023-04-12T11:35:11.170Z,73.32
2023-04-12T11:36:11.198Z,73.15
2023-04-12T11:37:11.102Z,73.32
2023-04-12T11:38:11.104Z,74.93
2023-04-12T11:39:11.041Z,74.93
2023-04-12T11:40:11.027Z,74.12
2023-04-12T11:41:11.017Z,77.02
2023-04-12T11:42:11.006Z,74.12
2023-04-12T11:43:11.013Z,75.09
2023-04-12T11:44:10.996Z,73.64
2023-04-12T11:45:15.893Z,74.12
2023-04-12T11:46:12.965Z,72.67
2023-04-12T11:47:10.903Z,74.60
2023-04-12T11:48:10.988Z,75.41
2023-04-12T11:49:10.891Z,74.93
2023-04-12T11:50:10.883Z,72.99
2023-04-12T11:51:11.736Z,73.96
2023-04-12T11:52:11.833Z,74.28
2023-04-12T11:53:10.840Z,74.93
2023-04-12T11:54:10.796Z,75.25
2023-04-12T11:55:10.776Z,74.28
2023-04-12T11:56:10.755Z,74.93
2023-04-12T11:57:10.745Z,73.32
2023-04-12T11:58:10.764Z,74.60
2023-04-12T11:59:10.703Z,74.12
2023-04-12T12:00:10.864Z,75.73
2023-04-12T12:01:10.674Z,73.15
2023-04-12T12:02:22.054Z,73.32
2023-04-12T12:03:12.868Z,74.93
2023-04-12T12:04:10.811Z,75.25
2023-04-12T12:05:10.782Z,73.96
2023-04-12T12:06:11.001Z,72.51
2023-04-12T12:07:10.666Z,74.77
2023-04-12T12:08:10.590Z,73.80
2023-04-12T12:09:10.547Z,74.77
2023-04-12T12:10:10.773Z,73.96
2023-04-12T12:11:10.562Z,73.48
2023-04-12T12:12:10.496Z,74.77
2023-04-12T12:13:10.516Z,72.03
2023-04-12T12:14:10.545Z,74.12
2023-04-12T12:15:10.474Z,74.93
2023-04-12T12:16:10.502Z,75.09
2023-04-12T12:17:10.488Z,74.77
2023-04-12T12:18:10.445Z,74.77
2023-04-12T12:19:10.447Z,73.64
2023-04-12T12:20:10.381Z,74.28
2023-04-12T12:21:10.350Z,73.32
2023-04-12T12:22:10.421Z,73.32
2023-04-12T12:23:10.418Z,74.60
2023-04-12T12:24:10.295Z,72.67
2023-04-12T12:25:10.268Z,73.15
2023-04-12T12:26:17.836Z,73.80
2023-04-12T12:27:12.284Z,74.77
2023-04-12T12:28:10.332Z,73.64
2023-04-12T12:29:10.247Z,73.64
2023-04-12T12:30:10.332Z,71.87
2023-04-12T12:31:10.269Z,74.93
2023-04-12T12:32:10.170Z,74.77
2023-04-12T12:33:10.224Z,74.28
2023-04-12T12:34:10.323Z,73.80
2023-04-12T12:35:10.160Z,73.80
2023-04-12T12:36:10.129Z,74.12
2023-04-12T12:37:10.081Z,73.32
2023-04-12T12:38:10.095Z,73.96
2023-04-12T12:39:10.041Z,74.12
2023-04-12T12:40:10.089Z,73.64
2023-04-12T12:41:10.027Z,73.48
2023-04-12T12:42:09.996Z,72.99
2023-04-12T12:43:10.077Z,72.83
2023-04-12T12:44:09.955Z,73.96
2023-04-12T12:45:09.967Z,73.96
2023-04-12T12:46:09.945Z,74.77
2023-04-12T12:47:13.969Z,73.32
2023-04-12T12:48:12.061Z,74.12
2023-04-12T12:49:09.876Z,72.51
2023-04-12T12:50:09.874Z,73.15
2023-04-12T12:51:09.845Z,73.15
2023-04-12T12:52:09.823Z,73.80